Time;durP1;ratioP1;P1;durP2;ratioP2;P2;SDS_P1;SDS_P2;PMS_P1;PMS_P2;Temp;Humidity;BMP_temperature;BMP_pressure;BME280_temperature;BME280_humidity;BME280_pressure;Samples;Min_cycle;Max_cycle;Signal;HPM_P1;HPM_P2
2023/06/08 00:00:53;;;;;;;28.42;25.15;;;;;;;13.37;100.00;96947.75;10584931;28;20242;-66
2023/06/08 00:05:53;;;;;;;27.77;24.38;;;;;;;13.35;100.00;96934.75;10584391;28;20218;-66
2023/06/08 00:10:54;;;;;;;27.90;25.17;;;;;;;13.40;100.00;96944.75;10584334;28;20193;-66
2023/06/08 00:15:55;;;;;;;25.83;23.13;;;;;;;13.35;100.00;96926.00;10583982;28;20214;-66
2023/06/08 00:20:56;;;;;;;25.98;23.27;;;;;;;13.31;100.00;96922.88;10584066;28;20710;-65
2023/06/08 00:25:56;;;;;;;30.73;26.23;;;;;;;13.33;100.00;96933.22;10583515;28;20711;-65
2023/06/08 00:30:56;;;;;;;29.77;26.48;;;;;;;13.26;100.00;96924.38;10583537;28;20225;-65
2023/06/08 00:35:58;;;;;;;28.67;25.65;;;;;;;13.33;100.00;96912.19;10565180;28;20202;-66
2023/06/08 00:41:00;;;;;;;29.02;25.90;;;;;;;13.29;100.00;96913.50;10564327;28;20194;-65
2023/06/08 00:46:02;;;;;;;27.58;24.20;;;;;;;13.30;100.00;96909.88;10582823;28;20213;-66
2023/06/08 00:51:02;;;;;;;30.77;27.73;;;;;;;13.08;100.00;96891.19;10582825;28;20724;-66
2023/06/08 00:56:05;;;;;;;35.10;31.60;;;;;;;13.03;100.00;96906.66;10582599;28;20616;-65
2023/06/08 01:01:11;;;;;;;28.27;25.33;;;;;;;13.12;100.00;96917.97;10582080;28;20190;-66
2023/06/08 01:06:16;;;;;;;27.23;24.52;;;;;;;13.14;100.00;96908.94;10563691;28;20256;-66
2023/06/08 01:11:54;;;;;;;26.00;22.88;;;;;;;13.14;100.00;96900.22;10582002;28;20186;-66
2023/06/08 01:16:55;;;;;;;23.65;21.13;;;;;;;13.11;100.00;96893.50;10581947;28;20201;-65
2023/06/08 01:22:09;;;;;;;26.30;23.42;;;;;;;13.05;100.00;96881.03;10562722;28;20628;-65
2023/06/08 01:27:12;;;;;;;25.10;22.70;;;;;;;13.11;100.00;96882.97;10520420;22;20239;-67
2023/06/08 01:32:13;;;;;;;23.15;20.35;;;;;;;13.15;100.00;96871.09;10496047;28;20316;-67
2023/06/08 01:37:41;;;;;;;25.10;20.48;;;;;;;13.11;100.00;96875.09;10496820;28;20824;-67
2023/06/08 01:42:44;;;;;;;21.50;19.17;;;;;;;13.06;100.00;96860.78;10495392;28;20218;-67
2023/06/08 01:47:47;;;;;;;24.73;22.20;;;;;;;12.95;100.00;96862.78;10478667;28;20215;-68
2023/06/08 01:52:48;;;;;;;22.52;19.85;;;;;;;13.01;100.00;96850.78;10495214;28;20655;-68
2023/06/08 01:57:48;;;;;;;20.83;18.42;;;;;;;13.03;100.00;96848.78;10495181;28;20184;-68
2023/06/08 02:02:48;;;;;;;20.80;18.80;;;;;;;12.98;100.00;96840.59;10494307;28;20223;-67
2023/06/08 02:07:49;;;;;;;19.98;17.85;;;;;;;12.97;100.00;96845.03;10495819;28;20248;-68
2023/06/08 02:12:49;;;;;;;21.13;19.02;;;;;;;12.93;100.00;96843.72;10495364;28;20191;-67
2023/06/08 02:17:51;;;;;;;20.42;18.42;;;;;;;12.90;100.00;96840.63;10493947;28;20277;-67
2023/06/08 02:22:51;;;;;;;21.23;18.92;;;;;;;12.93;100.00;96837.66;10495069;28;20759;-67
2023/06/08 02:27:53;;;;;;;21.58;19.38;;;;;;;12.92;100.00;96839.44;10495035;28;20195;-67
2023/06/08 02:32:53;;;;;;;23.35;19.33;;;;;;;12.90;100.00;96840.63;10495061;28;20204;-67
2023/06/08 02:37:54;;;;;;;21.42;19.00;;;;;;;12.89;100.00;96842.41;10494654;28;20614;-67
2023/06/08 02:42:55;;;;;;;20.60;18.58;;;;;;;12.92;100.00;96839.44;10493444;28;20723;-67
2023/06/08 02:47:57;;;;;;;23.33;20.42;;;;;;;12.80;100.00;96836.38;10493114;28;20210;-67
2023/06/08 02:52:58;;;;;;;25.60;22.88;;;;;;;12.73;100.00;96843.28;10494241;28;20191;-67
2023/06/08 02:57:58;;;;;;;28.65;24.05;;;;;;;12.76;100.00;96845.56;10494512;28;20193;-67
2023/06/08 03:03:01;;;;;;;26.27;23.13;;;;;;;12.78;100.00;96858.53;10493042;28;20242;-67
2023/06/08 03:08:02;;;;;;;27.48;22.50;;;;;;;12.82;100.00;96849.34;10493079;28;20274;-67
2023/06/08 03:13:03;;;;;;;26.38;23.77;;;;;;;12.77;100.00;96854.25;10492658;28;20209;-67
2023/06/08 03:18:03;;;;;;;28.70;25.80;;;;;;;12.78;100.00;96856.72;10492661;28;20190;-67
2023/06/08 03:23:05;;;;;;;34.97;26.95;;;;;;;12.81;100.00;96863.47;10493730;28;20227;-67
2023/06/08 03:28:06;;;;;;;29.15;25.77;;;;;;;12.88;100.00;96860.97;10493650;28;20564;-67
2023/06/08 03:33:07;;;;;;;25.08;22.58;;;;;;;12.91;100.00;96853.59;10492433;28;20286;-67
2023/06/08 03:38:30;;;;;;;25.20;22.90;;;;;;;12.90;100.00;96851.13;10493433;28;20203;-67
2023/06/08 03:43:35;;;;;;;23.77;21.48;;;;;;;12.92;100.00;96846.53;10492162;28;20230;-67
2023/06/08 03:48:36;;;;;;;23.48;21.33;;;;;;;12.91;100.00;96840.47;10491885;28;20190;-67
2023/06/08 03:53:37;;;;;;;23.50;21.20;;;;;;;12.94;100.00;96834.84;10491445;28;20206;-67
2023/06/08 03:58:41;;;;;;;23.00;20.73;;;;;;;13.02;100.00;96832.19;10491246;28;20678;-67
2023/06/08 04:03:42;;;;;;;23.35;21.05;;;;;;;13.02;100.00;96828.75;10490856;28;20804;-67
2023/06/08 04:08:44;;;;;;;22.08;18.48;;;;;;;13.03;100.00;96822.50;10491582;28;20193;-67
2023/06/08 04:13:45;;;;;;;21.92;19.67;;;;;;;13.09;100.00;96824.44;10491928;28;20207;-67
2023/06/08 04:18:48;;;;;;;22.92;19.40;;;;;;;13.06;100.00;96819.50;10500272;28;20180;-67
2023/06/08 04:23:51;;;;;;;19.40;17.48;;;;;;;13.06;100.00;96816.88;10498271;28;20737;-67
2023/06/08 04:28:57;;;;;;;20.63;18.38;;;;;;;13.14;100.00;96808.16;10498449;28;20188;-67
2023/06/08 04:34:02;;;;;;;18.75;16.83;;;;;;;13.23;100.00;96803.69;10498171;28;20695;-67
2023/06/08 04:39:03;;;;;;;22.10;17.95;;;;;;;13.28;100.00;96799.56;10498142;28;20187;-67
2023/06/08 04:44:05;;;;;;;17.52;15.73;;;;;;;13.24;100.00;96790.34;10498916;28;20261;-67
2023/06/08 04:49:06;;;;;;;17.40;15.52;;;;;;;13.34;100.00;96785.75;10525872;28;20269;-67
2023/06/08 04:54:13;;;;;;;17.48;15.57;;;;;;;13.44;100.00;96782.06;10582372;28;20262;-68
2023/06/08 04:59:13;;;;;;;17.73;16.02;;;;;;;13.55;100.00;96763.25;10582254;28;20186;-68
2023/06/08 05:04:13;;;;;;;15.88;14.38;;;;;;;13.50;100.00;96757.69;10581232;28;20226;-67
2023/06/08 05:09:14;;;;;;;17.55;15.75;;;;;;;13.56;100.00;96744.66;10582082;28;20201;-67
2023/06/08 05:14:14;;;;;;;17.13;15.38;;;;;;;13.78;100.00;96741.38;10582076;28;20280;-67
2023/06/08 05:19:15;;;;;;;15.73;14.30;;;;;;;13.85;100.00;96732.59;10581656;28;20206;-67
2023/06/08 05:24:15;;;;;;;15.25;13.85;;;;;;;14.00;100.00;96726.59;10581203;28;20332;-67
2023/06/08 05:29:15;;;;;;;16.15;14.43;;;;;;;14.04;100.00;96722.56;10581276;28;20206;-66
2023/06/08 05:34:16;;;;;;;15.38;13.90;;;;;;;14.12;100.00;96714.63;10581263;28;20212;-67
2023/06/08 05:39:17;;;;;;;15.18;13.55;;;;;;;14.27;100.00;96717.25;10581018;28;20727;-67
2023/06/08 05:44:17;;;;;;;13.52;12.32;;;;;;;14.49;100.00;96710.31;10580547;28;20225;-67
2023/06/08 05:49:18;;;;;;;12.93;11.65;;;;;;;14.65;100.00;96703.25;10580578;28;20219;-67
2023/06/08 05:54:18;;;;;;;13.95;11.40;;;;;;;14.74;100.00;96688.97;10580249;28;20794;-67
2023/06/08 05:59:18;;;;;;;13.13;11.80;;;;;;;14.81;100.00;96687.22;10580386;28;20190;-67
2023/06/08 06:04:19;;;;;;;11.23;10.23;;;;;;;14.93;100.00;96667.28;10566591;28;20777;-68
2023/06/08 06:09:19;;;;;;;11.35;10.15;;;;;;;15.22;100.00;96665.59;10500613;28;20554;-67
2023/06/08 06:14:20;;;;;;;11.82;10.63;;;;;;;15.52;100.00;96660.19;10495451;28;20214;-68
2023/06/08 06:19:20;;;;;;;12.00;10.77;;;;;;;15.47;100.00;96660.75;10501611;28;20183;-67
2023/06/08 06:24:20;;;;;;;12.18;11.02;;;;;;;15.54;100.00;96660.81;10506786;28;20313;-67
2023/06/08 06:29:21;;;;;;;13.10;11.77;;;;;;;15.62;100.00;96658.06;10494859;28;20183;-68
2023/06/08 06:34:21;;;;;;;16.33;12.55;;;;;;;15.92;100.00;96660.53;10494926;28;20203;-68
2023/06/08 06:39:21;;;;;;;13.25;11.82;;;;;;;16.27;100.00;96651.84;10494205;28;20191;-67
2023/06/08 06:44:22;;;;;;;12.88;11.65;;;;;;;16.34;100.00;96640.31;10494406;28;20230;-68
2023/06/08 06:49:22;;;;;;;12.15;11.00;;;;;;;16.45;100.00;96646.03;10494467;28;20198;-68
2023/06/08 06:54:22;;;;;;;14.85;10.48;;;;;;;16.87;100.00;96649.53;10494078;28;20294;-68
2023/06/08 06:59:23;;;;;;;12.73;10.15;;;;;;;17.17;100.00;96649.25;10506461;28;20182;-68
2023/06/08 07:04:23;;;;;;;12.90;9.75;;;;;;;17.51;100.00;96642.97;10534236;28;20219;-68
2023/06/08 07:09:24;;;;;;;13.55;9.43;;;;;;;17.69;100.00;96641.53;10534621;28;20190;-68
2023/06/08 07:14:25;;;;;;;10.45;9.32;;;;;;;18.21;100.00;96647.06;10533886;28;20209;-68
2023/06/08 07:19:25;;;;;;;12.27;8.90;;;;;;;18.02;100.00;96633.63;10534138;28;20263;-68
2023/06/08 07:24:25;;;;;;;12.30;8.93;;;;;;;18.64;100.00;96630.66;10564248;22;20238;-62
2023/06/08 07:29:26;;;;;;;17.50;10.23;;;;;;;18.22;100.00;96622.97;10573183;28;20280;-60
2023/06/08 07:34:27;;;;;;;13.23;9.23;;;;;;;18.65;100.00;96626.94;10587297;28;20209;-63
2023/06/08 07:39:28;;;;;;;10.90;9.80;;;;;;;19.11;100.00;96633.13;10572059;28;20700;-63
2023/06/08 07:44:28;;;;;;;11.90;8.80;;;;;;;19.68;100.00;96635.81;10553535;28;20214;-64
2023/06/08 07:49:28;;;;;;;10.52;9.60;;;;;;;19.29;100.00;96646.50;10555177;28;20324;-62
2023/06/08 07:54:29;;;;;;;12.23;9.65;;;;;;;19.24;100.00;96641.81;10555569;28;20210;-64
2023/06/08 07:59:30;;;;;;;11.07;9.80;;;;;;;19.95;100.00;96631.94;10541439;28;20285;-64
2023/06/08 08:04:30;;;;;;;11.05;9.32;;;;;;;20.33;100.00;96626.69;10564048;28;20790;-63
2023/06/08 08:09:30;;;;;;;11.70;8.77;;;;;;;20.71;100.00;96605.19;10583194;28;20197;-63
2023/06/08 08:14:31;;;;;;;10.75;8.60;;;;;;;21.16;96.63;96601.31;10582442;28;20206;-64
2023/06/08 08:19:31;;;;;;;7.72;7.03;;;;;;;21.38;96.40;96609.63;10582242;28;20186;-63
2023/06/08 08:24:32;;;;;;;10.48;8.65;;;;;;;22.01;88.12;96589.56;10620705;27;20229;-64
2023/06/08 08:29:32;;;;;;;8.05;7.25;;;;;;;22.42;78.86;96552.31;10548288;27;20218;-63
2023/06/08 08:34:33;;;;;;;7.30;6.60;;;;;;;23.63;76.06;96542.41;10573841;28;20210;-64
2023/06/08 08:39:33;;;;;;;9.83;7.87;;;;;;;22.64;78.08;96570.34;10617232;27;20431;-63
2023/06/08 08:44:34;;;;;;;12.63;9.02;;;;;;;23.24;81.64;96606.50;10614438;27;20493;-65
2023/06/08 08:49:39;;;;;;;10.25;8.00;;;;;;;23.37;76.48;96563.44;10597821;27;20219;-65
2023/06/08 08:54:40;;;;;;;17.10;8.35;;;;;;;23.51;76.78;96580.75;10594454;27;20226;-64
2023/06/08 08:59:41;;;;;;;9.35;7.15;;;;;;;23.62;72.61;96538.94;10615586;27;20193;-64
2023/06/08 09:04:41;;;;;;;10.68;7.30;;;;;;;23.17;77.91;96579.94;10622545;27;20213;-64
2023/06/08 09:10:14;;;;;;;12.73;8.70;;;;;;;23.62;72.77;96541.63;10588213;27;20201;-64
2023/06/08 09:15:23;;;;;;;11.18;7.70;;;;;;;23.18;74.71;96570.84;10619643;27;20494;-63
2023/06/08 09:20:28;;;;;;;11.13;6.95;;;;;;;24.33;68.25;96516.13;10619225;27;20186;-64
2023/06/08 09:25:36;;;;;;;11.85;7.30;;;;;;;24.69;65.85;96493.25;10565039;27;20218;-67
2023/06/08 09:30:36;;;;;;;10.48;6.93;;;;;;;24.72;67.15;96519.53;10555156;28;20183;-66
2023/06/08 09:35:37;;;;;;;8.80;7.50;;;;;;;24.50;69.18;96537.47;10556184;28;20202;-64
2023/06/08 09:40:37;;;;;;;15.35;8.27;;;;;;;23.93;70.74;96552.00;10563541;28;20482;-66
2023/06/08 09:45:46;;;;;;;13.13;7.97;;;;;;;24.23;70.08;96546.25;10578156;28;20325;-65
2023/06/08 09:50:47;;;;;;;10.75;7.95;;;;;;;24.29;70.46;96544.44;10621432;27;20493;-67
2023/06/08 09:55:48;;;;;;;9.55;8.50;;;;;;;22.59;75.66;96573.72;10618666;27;20778;-64
2023/06/08 10:00:49;;;;;;;9.60;8.40;;;;;;;23.65;71.36;96532.31;10559807;28;20190;-64
2023/06/08 10:05:50;;;;;;;12.57;8.07;;;;;;;23.84;72.84;96554.25;10577572;28;20263;-67
2023/06/08 10:10:50;;;;;;;11.80;9.10;;;;;;;23.75;69.18;96521.78;10575422;28;20258;-66
2023/06/08 10:15:51;;;;;;;12.40;8.43;;;;;;;24.26;69.01;96526.19;10618940;27;20209;-67
2023/06/08 10:20:52;;;;;;;9.70;7.97;;;;;;;25.05;66.22;96500.81;10575656;27;20513;-65
2023/06/08 10:25:53;;;;;;;8.43;7.55;;;;;;;25.95;64.42;96505.53;10549206;28;20255;-64
2023/06/08 10:30:54;;;;;;;7.63;6.85;;;;;;;25.79;64.47;96504.66;10558510;28;20198;-64
2023/06/08 10:36:08;;;;;;;10.07;6.97;;;;;;;26.30;62.38;96485.31;10535086;28;20221;-65
2023/06/08 10:41:08;;;;;;;9.85;6.25;;;;;;;26.77;60.34;96452.16;10544062;28;20531;-64
2023/06/08 10:46:09;;;;;;;14.85;6.85;;;;;;;27.16;56.95;96415.88;10574895;28;20223;-65
2023/06/08 10:51:12;;;;;;;12.50;7.13;;;;;;;27.89;55.79;96409.28;10618132;27;20663;-63
2023/06/08 10:56:16;;;;;;;8.65;5.97;;;;;;;27.67;55.98;96406.91;10618592;27;20455;-65
2023/06/08 11:01:18;;;;;;;8.00;6.43;;;;;;;27.97;55.68;96405.25;10618104;27;20211;-63
2023/06/08 11:06:19;;;;;;;6.45;5.70;;;;;;;29.43;49.97;96348.91;10617890;27;20232;-63
2023/06/08 11:11:20;;;;;;;8.83;5.63;;;;;;;30.21;48.24;96335.28;10618201;28;20231;-64
2023/06/08 11:16:20;;;;;;;9.07;5.07;;;;;;;29.16;50.15;96338.66;10597337;28;20460;-64
2023/06/08 11:21:23;;;;;;;6.00;5.40;;;;;;;29.23;50.62;96339.13;10606822;28;20527;-64
2023/06/08 11:26:24;;;;;;;8.45;5.05;;;;;;;28.32;53.71;96371.13;10623871;27;20639;-64
2023/06/08 11:31:31;;;;;;;9.57;4.57;;;;;;;29.85;50.22;96349.28;10621011;27;20238;-64
2023/06/08 11:36:32;;;;;;;6.63;4.45;;;;;;;29.28;48.88;96293.25;10541865;28;20210;-64
2023/06/08 11:41:32;;;;;;;6.82;4.97;;;;;;;29.47;49.17;96301.38;10544968;28;20199;-63
2023/06/08 11:46:33;;;;;;;8.30;4.65;;;;;;;30.83;45.43;96272.94;10561884;28;20238;-63
2023/06/08 11:51:33;;;;;;;6.97;4.30;;;;;;;30.65;43.96;96230.56;10539955;28;20190;-64
2023/06/08 11:56:35;;;;;;;8.30;4.17;;;;;;;30.32;45.68;96255.66;10543409;28;20260;-62
2023/06/08 12:01:37;;;;;;;6.45;5.13;;;;;;;30.80;44.72;96261.91;10541477;28;20472;-64
2023/06/08 12:06:37;;;;;;;12.27;8.27;;;;;;;29.29;48.56;96280.53;10540674;28;20332;-64
2023/06/08 12:11:38;;;;;;;10.40;5.20;;;;;;;28.78;47.04;96236.81;10522393;28;20224;-64
2023/06/08 12:16:42;;;;;;;5.70;4.63;;;;;;;27.18;51.39;96260.41;10540600;28;20211;-64
2023/06/08 12:21:43;;;;;;;8.00;4.93;;;;;;;26.28;53.36;96311.03;10568730;28;20492;-63
2023/06/08 12:26:43;;;;;;;6.93;4.10;;;;;;;24.11;52.92;96256.53;10579693;28;20382;-65
2023/06/08 12:31:43;;;;;;;6.07;4.05;;;;;;;22.46;54.03;96269.69;10583061;28;20808;-65
2023/06/08 12:36:44;;;;;;;7.13;4.40;;;;;;;20.70;56.55;96270.00;10582668;28;20620;-65
2023/06/08 12:41:44;;;;;;;8.70;4.07;;;;;;;19.80;60.14;96341.72;10583139;28;20189;-65
2023/06/08 12:46:44;;;;;;;5.85;3.92;;;;;;;18.69;64.96;96415.88;10583084;28;20291;-65
2023/06/08 12:51:45;;;;;;;4.97;4.07;;;;;;;17.96;71.30;96510.72;10565309;28;20221;-66
2023/06/08 12:56:45;;;;;;;6.85;4.88;;;;;;;16.84;81.23;96573.16;10560059;28;20239;-66
2023/06/08 13:01:45;;;;;;;8.55;5.93;;;;;;;16.13;98.42;96592.81;10556289;28;20186;-67
2023/06/08 13:06:46;;;;;;;11.52;6.60;;;;;;;15.34;100.00;96615.75;10571161;28;20275;-65
2023/06/08 13:11:46;;;;;;;10.18;6.43;;;;;;;15.02;100.00;96627.59;10560345;28;20190;-67
2023/06/08 13:16:47;;;;;;;11.27;7.13;;;;;;;15.01;100.00;96616.25;10556907;28;20340;-67
2023/06/08 13:21:47;;;;;;;11.35;8.52;;;;;;;14.88;100.00;96619.53;10556339;28;20201;-65
2023/06/08 13:26:48;;;;;;;11.38;7.97;;;;;;;14.75;100.00;96624.69;10557517;28;20716;-67
2023/06/08 13:31:50;;;;;;;14.65;9.40;;;;;;;14.88;100.00;96642.47;10557560;28;20286;-67
2023/06/08 13:36:50;;;;;;;14.93;10.02;;;;;;;14.71;100.00;96649.78;10557925;28;20218;-68
2023/06/08 13:41:51;;;;;;;11.52;10.15;;;;;;;14.78;100.00;96640.13;10566124;22;20249;-67
2023/06/08 13:46:52;;;;;;;12.45;9.38;;;;;;;14.86;100.00;96640.00;10523592;28;20305;-68
2023/06/08 13:51:53;;;;;;;11.23;9.38;;;;;;;15.30;100.00;96643.53;10536788;28;20222;-69
2023/06/08 13:56:53;;;;;;;9.57;7.28;;;;;;;15.61;100.00;96616.00;10517637;28;20541;-68
2023/06/08 14:01:53;;;;;;;11.73;8.02;;;;;;;15.98;100.00;96606.13;10510169;28;20219;-70
2023/06/08 14:06:54;;;;;;;15.40;7.18;;;;;;;16.21;100.00;96582.06;10528140;28;20206;-69
2023/06/08 14:11:54;;;;;;;9.80;6.50;;;;;;;16.54;100.00;96555.78;10536115;28;20229;-69
2023/06/08 14:16:54;;;;;;;5.78;5.28;;;;;;;16.85;100.00;96556.28;10536052;28;20190;-70
2023/06/08 14:21:55;;;;;;;13.68;5.68;;;;;;;17.43;100.00;96550.50;10535849;28;20211;-68
2023/06/08 14:26:55;;;;;;;8.85;4.72;;;;;;;18.96;100.00;96516.56;10535124;28;20238;-67
2023/06/08 14:31:55;;;;;;;6.07;4.35;;;;;;;20.15;88.83;96471.34;10533450;28;20222;-67
2023/06/08 14:36:56;;;;;;;9.27;3.92;;;;;;;20.21;78.04;96427.09;10533982;28;20218;-68
2023/06/08 14:41:56;;;;;;;3.95;3.47;;;;;;;19.69;77.17;96430.94;10535002;28;20245;-68
2023/06/08 14:46:57;;;;;;;6.03;3.83;;;;;;;19.82;77.34;96438.00;10536001;28;20283;-68
2023/06/08 14:51:58;;;;;;;4.57;3.97;;;;;;;19.60;79.00;96432.25;10534575;28;20221;-67
2023/06/08 14:56:58;;;;;;;7.50;3.90;;;;;;;19.77;77.12;96413.94;10534644;28;20202;-68
2023/06/08 15:01:59;;;;;;;5.93;3.35;;;;;;;19.40;76.78;96395.28;10533795;28;20306;-68
2023/06/08 15:06:59;;;;;;;4.90;3.50;;;;;;;19.63;75.49;96375.22;10533244;28;20313;-69
2023/06/08 15:11:59;;;;;;;5.70;3.78;;;;;;;19.56;73.85;96349.53;10534069;28;20198;-69
2023/06/08 15:17:00;;;;;;;8.02;3.40;;;;;;;19.70;74.58;96367.97;10529422;28;20662;-67
2023/06/08 15:22:00;;;;;;;6.00;3.10;;;;;;;20.11;70.28;96322.06;10492298;28;20223;-67
2023/06/08 15:27:01;;;;;;;4.78;3.13;;;;;;;20.56;67.63;96314.66;10491906;28;20223;-67
2023/06/08 15:32:01;;;;;;;5.10;3.10;;;;;;;20.95;66.59;96315.84;10492299;28;20268;-68
2023/06/08 15:37:02;;;;;;;3.78;2.92;;;;;;;21.30;66.73;96319.50;10499367;28;20281;-68
2023/06/08 15:42:03;;;;;;;3.65;3.10;;;;;;;21.52;67.01;96336.53;10533665;28;20765;-68
2023/06/08 15:47:03;;;;;;;4.22;3.10;;;;;;;22.91;62.09;96284.75;10533353;28;20305;-67
2023/06/08 15:52:04;;;;;;;6.43;4.90;;;;;;;23.81;61.29;96284.56;10533163;28;20309;-67
2023/06/08 15:57:06;;;;;;;8.75;5.80;;;;;;;23.53;62.98;96326.50;10532827;28;20251;-67
2023/06/08 16:02:06;;;;;;;6.00;4.40;;;;;;;23.13;62.56;96300.88;10515344;28;20211;-67
2023/06/08 16:07:06;;;;;;;11.23;4.78;;;;;;;23.60;58.10;96240.72;10510258;28;20222;-67
2023/06/08 16:12:07;;;;;;;4.68;3.10;;;;;;;23.81;58.10;96247.09;10506832;28;20223;-67
2023/06/08 16:17:08;;;;;;;4.50;3.22;;;;;;;22.72;65.49;96351.78;10509872;28;20203;-67
2023/06/08 16:22:10;;;;;;;4.00;2.90;;;;;;;21.47;71.39;96397.72;10498119;28;20323;-68
2023/06/08 16:27:10;;;;;;;5.95;3.42;;;;;;;20.87;74.73;96413.91;10499536;28;20215;-69
2023/06/08 16:32:10;;;;;;;6.55;3.50;;;;;;;20.54;77.77;96410.69;10499159;28;20235;-69
2023/06/08 16:37:11;;;;;;;5.93;3.50;;;;;;;20.18;79.48;96407.06;10499143;28;20187;-69
2023/06/08 16:42:11;;;;;;;4.45;3.65;;;;;;;20.06;81.25;96408.88;10498559;28;20254;-69
2023/06/08 16:47:11;;;;;;;4.22;3.42;;;;;;;19.96;84.25;96415.53;10498750;28;20222;-69
2023/06/08 16:52:12;;;;;;;8.68;3.85;;;;;;;19.86;88.74;96428.56;10499056;28;20262;-69
2023/06/08 16:57:12;;;;;;;6.20;4.18;;;;;;;19.70;94.74;96426.44;10498335;28;20203;-69
2023/06/08 17:02:12;;;;;;;7.10;4.50;;;;;;;19.19;97.44;96426.53;10498199;28;20247;-69
2023/06/08 17:07:13;;;;;;;7.28;4.88;;;;;;;19.07;100.00;96429.09;10501488;28;20195;-69
2023/06/08 17:12:13;;;;;;;6.25;4.88;;;;;;;18.82;100.00;96434.38;10506250;28;20203;-70
2023/06/08 17:17:14;;;;;;;9.25;5.22;;;;;;;18.77;100.00;96426.22;10499971;28;20195;-69
2023/06/08 17:22:14;;;;;;;7.68;4.65;;;;;;;18.62;100.00;96431.88;10497472;28;20211;-69
2023/06/08 17:27:15;;;;;;;4.30;3.90;;;;;;;18.75;100.00;96428.28;10497524;28;20229;-68
2023/06/08 17:32:15;;;;;;;4.50;3.60;;;;;;;18.52;100.00;96434.97;10496864;28;20210;-68
2023/06/08 17:37:15;;;;;;;5.22;3.50;;;;;;;18.38;100.00;96441.38;10496980;28;20332;-69
2023/06/08 17:42:16;;;;;;;6.25;3.55;;;;;;;18.12;100.00;96442.34;10496345;28;20234;-69
2023/06/08 17:47:16;;;;;;;4.78;3.67;;;;;;;18.13;100.00;96439.47;10496444;28;20191;-69
2023/06/08 17:52:17;;;;;;;4.53;3.70;;;;;;;18.16;100.00;96439.06;10496326;28;20206;-69
2023/06/08 17:57:17;;;;;;;6.72;4.10;;;;;;;17.95;100.00;96440.16;10496202;28;20219;-69
2023/06/08 18:02:20;;;;;;;5.85;4.10;;;;;;;17.64;100.00;96433.72;10495714;28;20226;-69
2023/06/08 18:07:20;;;;;;;6.13;4.18;;;;;;;17.52;100.00;96431.88;10495601;28;20187;-69
2023/06/08 18:12:20;;;;;;;5.68;4.38;;;;;;;17.23;100.00;96439.28;10521815;28;20205;-68
2023/06/08 18:17:21;;;;;;;5.07;4.57;;;;;;;17.06;100.00;96442.34;10525476;28;20219;-69
2023/06/08 18:22:22;;;;;;;9.65;5.20;;;;;;;16.74;100.00;96450.03;10516241;28;20229;-69
2023/06/08 18:27:23;;;;;;;5.90;4.88;;;;;;;16.44;100.00;96446.13;10500862;28;20274;-69
2023/06/08 18:32:23;;;;;;;13.75;5.80;;;;;;;16.35;100.00;96445.47;10493221;28;20290;-69
2023/06/08 18:37:23;;;;;;;8.40;5.55;;;;;;;16.37;100.00;96446.09;10494370;28;20195;-70
2023/06/08 18:42:24;;;;;;;9.55;5.60;;;;;;;16.09;100.00;96447.03;10504203;28;20235;-70
2023/06/08 18:47:25;;;;;;;7.43;5.43;;;;;;;15.87;100.00;96449.78;10512845;28;20263;-68
2023/06/08 18:52:25;;;;;;;9.27;5.88;;;;;;;15.73;100.00;96456.00;10514358;28;20218;-68
2023/06/08 18:57:29;;;;;;;6.72;5.43;;;;;;;15.56;100.00;96466.06;10512833;28;20182;-68
2023/06/08 19:02:30;;;;;;;8.80;5.72;;;;;;;15.29;100.00;96473.78;10513873;28;20588;-69
2023/06/08 19:07:31;;;;;;;11.68;5.82;;;;;;;15.16;100.00;96479.78;10514681;28;20198;-68
2023/06/08 19:12:31;;;;;;;8.07;5.53;;;;;;;14.96;100.00;96482.28;10512030;28;20199;-69
2023/06/08 19:17:31;;;;;;;8.15;5.82;;;;;;;14.75;100.00;96485.72;10513142;28;20493;-68
2023/06/08 19:22:32;;;;;;;6.80;6.03;;;;;;;14.56;100.00;96496.84;10495649;28;20259;-68
2023/06/08 19:27:32;;;;;;;8.93;7.30;;;;;;;14.32;100.00;96505.91;10513114;28;20270;-68
2023/06/08 19:32:32;;;;;;;10.45;6.70;;;;;;;14.16;100.00;96513.03;10511989;28;20255;-68
2023/06/08 19:37:33;;;;;;;12.25;6.60;;;;;;;14.04;100.00;96527.66;10525158;28;20189;-68
2023/06/08 19:42:33;;;;;;;8.65;7.57;;;;;;;13.86;100.00;96536.75;10575727;22;20268;-64
2023/06/08 19:47:34;;;;;;;7.53;6.63;;;;;;;13.75;100.00;96534.56;10538975;28;20187;-67
2023/06/08 19:52:34;;;;;;;10.07;6.97;;;;;;;13.63;100.00;96533.38;10553006;28;20210;-67
2023/06/08 19:57:35;;;;;;;11.82;6.63;;;;;;;13.53;100.00;96541.53;10584887;28;20229;-64
2023/06/08 20:02:35;;;;;;;9.82;7.20;;;;;;;13.36;100.00;96539.06;10584201;28;20221;-67
2023/06/08 20:07:36;;;;;;;8.10;6.47;;;;;;;13.35;100.00;96533.97;10584333;28;20198;-67
2023/06/08 20:12:36;;;;;;;7.85;7.05;;;;;;;13.22;100.00;96528.47;10584063;28;20233;-67
2023/06/08 20:17:36;;;;;;;10.50;7.95;;;;;;;13.22;100.00;96531.91;10546259;28;20194;-67
2023/06/08 20:22:37;;;;;;;8.05;7.15;;;;;;;13.20;100.00;96529.47;10541215;28;20285;-67
2023/06/08 20:27:37;;;;;;;11.82;7.00;;;;;;;13.14;100.00;96532.81;10541161;28;20213;-67
2023/06/08 20:32:37;;;;;;;9.88;7.10;;;;;;;13.13;100.00;96530.34;10540936;28;20214;-67
2023/06/08 20:37:38;;;;;;;9.32;7.05;;;;;;;13.05;100.00;96540.91;10540908;28;20275;-68
2023/06/08 20:42:38;;;;;;;10.20;7.30;;;;;;;12.99;100.00;96542.47;10540349;28;20230;-67
2023/06/08 20:47:39;;;;;;;10.98;8.15;;;;;;;13.00;100.00;96549.34;10540703;28;20732;-67
2023/06/08 20:52:41;;;;;;;10.95;6.50;;;;;;;12.93;100.00;96538.72;10540648;28;20703;-67
2023/06/08 20:57:41;;;;;;;10.93;7.35;;;;;;;12.83;100.00;96535.50;10539984;28;20571;-67
2023/06/08 21:02:49;;;;;;;11.82;6.80;;;;;;;12.77;100.00;96544.91;10540102;28;20229;-67
2023/06/08 21:07:50;;;;;;;13.70;7.57;;;;;;;12.74;100.00;96542.63;10539731;28;20186;-64
2023/06/08 21:12:50;;;;;;;11.75;6.95;;;;;;;12.72;100.00;96544.59;10540156;28;20203;-66
2023/06/08 21:17:50;;;;;;;12.30;7.55;;;;;;;12.69;100.00;96528.38;10539770;28;20194;-66
2023/06/08 21:22:51;;;;;;;10.10;7.00;;;;;;;12.65;100.00;96528.72;10539650;28;20214;-66
2023/06/08 21:27:51;;;;;;;7.30;6.60;;;;;;;12.62;100.00;96538.78;10539488;28;20205;-66
2023/06/08 21:32:51;;;;;;;9.77;7.05;;;;;;;12.59;100.00;96533.84;10539393;28;20303;-66
2023/06/08 21:37:52;;;;;;;9.90;7.35;;;;;;;12.54;100.00;96531.75;10539131;28;20182;-67
2023/06/08 21:42:53;;;;;;;9.57;6.60;;;;;;;12.53;100.00;96529.31;10538587;28;20253;-66
2023/06/08 21:47:53;;;;;;;10.30;7.40;;;;;;;12.45;100.00;96527.50;10538870;28;20194;-67
2023/06/08 21:52:53;;;;;;;9.40;7.38;;;;;;;12.41;100.00;96527.03;10538320;28;20195;-66
2023/06/08 21:57:54;;;;;;;8.48;7.38;;;;;;;12.33;100.00;96540.22;10538378;28;20190;-66
2023/06/08 22:02:54;;;;;;;13.48;8.40;;;;;;;12.31;100.00;96548.28;10537588;28;20246;-67
2023/06/08 22:07:54;;;;;;;9.35;7.28;;;;;;;12.34;100.00;96549.72;10535397;28;20198;-66
2023/06/08 22:12:55;;;;;;;8.38;7.55;;;;;;;12.31;100.00;96544.81;10537319;28;20218;-66
2023/06/08 22:17:56;;;;;;;8.35;7.22;;;;;;;12.26;100.00;96552.41;10537406;28;20183;-66
2023/06/08 22:22:56;;;;;;;13.15;7.07;;;;;;;12.25;100.00;96548.13;10536985;28;20238;-66
2023/06/08 22:27:56;;;;;;;9.57;7.28;;;;;;;12.18;100.00;96549.81;10537134;28;20198;-66
2023/06/08 22:32:57;;;;;;;9.23;7.32;;;;;;;12.13;100.00;96545.88;10536788;28;20580;-67
2023/06/08 22:37:57;;;;;;;8.85;7.78;;;;;;;12.13;100.00;96559.03;10536780;28;20194;-67
2023/06/08 22:42:57;;;;;;;11.65;7.80;;;;;;;12.14;100.00;96559.84;10536530;28;20412;-66
2023/06/08 22:47:59;;;;;;;12.85;8.10;;;;;;;12.13;100.00;96564.28;10536387;28;20609;-66
2023/06/08 22:53:00;;;;;;;9.05;8.15;;;;;;;12.12;100.00;96567.88;10536243;28;20280;-66